createdAt,value
2023-06-11T00:02:23.330Z,54570.03
2023-06-11T00:04:50.666Z,54543.13
2023-06-11T00:07:18.081Z,54460.41
2023-06-11T00:09:44.622Z,54448.00
2023-06-11T00:12:11.004Z,54468.69
2023-06-11T00:14:37.710Z,54456.28
2023-06-11T00:17:04.232Z,54476.97
2023-06-11T00:19:31.919Z,54456.28
2023-06-11T00:22:00.009Z,54466.63
2023-06-11T00:24:26.506Z,54543.13
2023-06-11T00:26:52.901Z,54551.41
2023-06-11T00:29:19.258Z,54532.78
2023-06-11T00:31:45.783Z,54534.88
2023-06-11T00:34:12.178Z,54572.09
2023-06-11T00:36:41.479Z,54582.44
2023-06-11T00:39:12.305Z,54590.69
2023-06-11T00:41:39.627Z,54582.44
2023-06-11T00:44:07.427Z,54625.84
2023-06-11T00:46:34.352Z,54603.09
2023-06-11T00:49:01.688Z,54609.31
2023-06-11T00:51:28.474Z,54565.88
2023-06-11T00:53:55.422Z,54555.53
2023-06-11T00:56:24.628Z,54584.50
2023-06-11T00:58:51.284Z,54634.13
2023-06-11T01:01:27.571Z,54596.91
2023-06-11T01:03:55.737Z,54598.97
2023-06-11T01:06:22.453Z,54596.91
2023-06-11T01:08:54.202Z,54673.41
2023-06-11T01:11:22.840Z,54712.72
2023-06-11T01:13:49.365Z,54754.06
2023-06-11T01:16:38.516Z,54712.72
2023-06-11T01:19:11.697Z,54700.31
2023-06-11T01:21:42.759Z,54723.06
2023-06-11T01:24:10.167Z,54661.00
2023-06-11T01:26:51.105Z,54727.19
2023-06-11T01:29:17.461Z,54683.75
2023-06-11T01:31:43.890Z,54675.50
2023-06-11T01:34:10.946Z,54745.81
2023-06-11T01:36:38.058Z,54650.66
2023-06-11T01:39:05.440Z,54592.78
2023-06-11T01:41:32.024Z,54617.59
2023-06-11T01:43:58.330Z,54596.91
2023-06-11T01:46:24.701Z,54609.31
2023-06-11T01:48:51.186Z,54621.72
2023-06-11T01:51:18.070Z,54557.63
2023-06-11T01:53:44.541Z,54609.31
2023-06-11T01:56:11.025Z,54658.94
2023-06-11T01:58:38.289Z,54729.25
2023-06-11T02:01:04.945Z,54814.06
2023-06-11T02:03:31.501Z,54799.56
2023-06-11T02:05:57.967Z,54838.88
2023-06-11T02:08:24.609Z,54838.88
2023-06-11T02:10:51.059Z,54954.69
2023-06-11T02:13:17.385Z,55033.28
2023-06-11T02:15:43.734Z,55103.59
2023-06-11T02:18:10.283Z,55043.63
2023-06-11T02:20:36.730Z,55066.38
2023-06-11T02:23:04.670Z,55053.97
2023-06-11T02:25:31.454Z,55386.97
2023-06-11T02:27:57.847Z,55279.41
2023-06-11T02:30:24.208Z,55442.81
2023-06-11T02:32:50.691Z,55494.53
2023-06-11T02:35:17.099Z,55597.94
2023-06-11T02:37:43.449Z,55682.75
2023-06-11T02:40:10.068Z,55720.00
2023-06-11T02:42:36.418Z,55626.91
2023-06-11T02:45:02.807Z,55453.16
2023-06-11T02:47:30.021Z,55382.81
2023-06-11T02:49:56.616Z,55380.75
2023-06-11T02:52:23.009Z,55341.47
2023-06-11T02:54:49.387Z,55519.34
2023-06-11T02:57:15.963Z,55370.41
2023-06-11T02:59:42.314Z,55308.38
2023-06-11T03:02:08.819Z,55235.97
2023-06-11T03:04:35.268Z,55089.13
2023-06-11T03:07:01.592Z,55134.63
2023-06-11T03:09:27.940Z,55149.09
2023-06-11T03:11:54.348Z,55171.84
2023-06-11T03:14:22.142Z,55221.50
2023-06-11T03:16:48.562Z,55289.75
2023-06-11T03:19:14.972Z,55308.38
2023-06-11T03:21:41.308Z,55366.28
2023-06-11T03:24:07.707Z,55374.56
2023-06-11T03:26:34.137Z,55362.13
2023-06-11T03:29:03.195Z,55453.16
2023-06-11T03:31:29.737Z,55291.81
2023-06-11T03:33:56.118Z,55349.72
2023-06-11T03:36:22.557Z,55267.00
2023-06-11T03:38:48.910Z,55324.91
2023-06-11T03:41:15.317Z,55436.59
2023-06-11T03:43:41.740Z,55517.28
2023-06-11T03:46:08.095Z,55382.81
2023-06-11T03:48:34.514Z,55482.13
2023-06-11T03:51:00.884Z,55494.53
2023-06-11T03:53:27.752Z,55304.22
2023-06-11T03:55:54.134Z,55399.38
2023-06-11T03:58:20.788Z,55345.59
2023-06-11T04:00:47.158Z,55306.28
2023-06-11T04:03:13.671Z,55343.53
2023-06-11T04:05:40.054Z,55382.81
2023-06-11T04:08:06.517Z,55618.63
2023-06-11T04:10:33.130Z,55351.78
2023-06-11T04:12:59.504Z,55291.81
2023-06-11T04:15:26.768Z,55285.59
2023-06-11T04:17:53.144Z,55204.94
2023-06-11T04:20:19.688Z,55233.91
2023-06-11T04:22:46.199Z,55151.16
2023-06-11T04:25:13.298Z,55076.72
2023-06-11T04:27:39.909Z,55035.34
2023-06-11T04:30:07.902Z,54981.56
2023-06-11T04:32:35.779Z,55089.13
2023-06-11T04:35:03.709Z,55035.34
2023-06-11T04:37:39.085Z,54900.91
2023-06-11T04:40:15.340Z,54809.91
2023-06-11T04:42:41.753Z,54774.75
2023-06-11T04:45:09.544Z,54725.13
2023-06-11T04:47:36.607Z,54745.81
2023-06-11T04:50:06.466Z,54665.16
2023-06-11T04:52:33.094Z,54592.78
2023-06-11T04:55:00.223Z,54536.94
2023-06-11T04:57:26.725Z,54414.91
2023-06-11T04:59:53.081Z,54307.38
2023-06-11T05:02:19.570Z,54288.78
2023-06-11T05:04:50.732Z,54330.13
2023-06-11T05:07:20.092Z,54350.81
2023-06-11T05:09:46.434Z,54381.84
2023-06-11T05:12:13.008Z,54408.72
2023-06-11T05:14:39.659Z,54410.78
2023-06-11T05:17:06.045Z,54433.53
2023-06-11T05:19:32.421Z,54452.16
2023-06-11T05:21:58.778Z,54501.78
2023-06-11T05:24:30.187Z,54520.38
2023-06-11T05:26:59.635Z,54489.38
2023-06-11T05:29:27.616Z,54510.03
2023-06-11T05:31:54.023Z,54545.19
2023-06-11T05:34:20.680Z,54555.53
2023-06-11T05:36:49.164Z,54555.53
2023-06-11T05:39:15.520Z,54576.22
2023-06-11T05:41:41.925Z,54570.03
2023-06-11T05:44:08.241Z,54607.25
2023-06-11T05:46:34.632Z,54578.28
2023-06-11T05:49:01.306Z,54580.34
2023-06-11T05:51:27.663Z,54607.25
2023-06-11T05:53:54.252Z,54555.53
2023-06-11T05:56:20.652Z,54621.72
2023-06-11T05:58:47.043Z,54673.41
2023-06-11T06:01:16.516Z,54694.09
2023-06-11T06:03:42.995Z,54663.06
2023-06-11T06:06:10.032Z,54596.91
2023-06-11T06:08:36.909Z,54673.41
2023-06-11T06:11:03.295Z,54706.50
2023-06-11T06:13:32.139Z,54727.19
2023-06-11T06:15:58.562Z,54729.25
2023-06-11T06:18:24.930Z,54708.56
2023-06-11T06:20:51.338Z,54799.56
2023-06-11T06:23:17.742Z,54774.75
2023-06-11T06:25:44.124Z,54816.13
2023-06-11T06:28:13.552Z,54768.56
2023-06-11T06:30:40.930Z,54849.22
2023-06-11T06:33:07.375Z,54857.47
2023-06-11T06:35:33.894Z,54811.97
2023-06-11T06:38:03.541Z,54867.81
2023-06-11T06:40:29.962Z,54840.94
2023-06-11T06:42:56.460Z,54749.94
2023-06-11T06:45:22.826Z,54737.53
2023-06-11T06:47:49.364Z,54741.66
2023-06-11T06:50:15.872Z,54785.09
2023-06-11T06:52:42.325Z,54830.59
2023-06-11T06:55:09.182Z,54857.47
2023-06-11T06:57:36.513Z,54849.22
2023-06-11T07:00:04.286Z,54803.72
2023-06-11T07:02:30.789Z,54861.63
2023-06-11T07:04:57.337Z,54865.75
2023-06-11T07:07:25.507Z,54865.75
2023-06-11T07:09:52.112Z,54861.63
2023-06-11T07:12:19.199Z,54828.53
2023-06-11T07:14:45.608Z,54954.69
2023-06-11T07:17:11.993Z,54965.03
2023-06-11T07:19:38.446Z,54917.47
2023-06-11T07:22:05.063Z,54944.34
2023-06-11T07:24:32.110Z,54861.63
2023-06-11T07:26:58.467Z,54840.94
2023-06-11T07:29:25.529Z,54845.06
2023-06-11T07:31:51.983Z,54749.94
2023-06-11T07:34:19.818Z,54764.41
2023-06-11T07:36:46.173Z,54803.72
2023-06-11T07:39:12.843Z,54762.34
2023-06-11T07:41:39.257Z,54733.41
2023-06-11T07:44:05.905Z,54752.00
2023-06-11T07:46:32.543Z,54754.06
2023-06-11T07:48:58.960Z,54745.81
2023-06-11T07:51:26.297Z,54737.53
2023-06-11T07:53:52.715Z,54737.53
2023-06-11T07:56:19.095Z,54704.44
2023-06-11T07:58:45.766Z,54702.38
2023-06-11T08:01:14.566Z,54731.31
2023-06-11T08:03:41.231Z,54770.63
2023-06-11T08:06:10.361Z,54783.03
2023-06-11T08:08:37.076Z,54783.03
2023-06-11T08:11:03.607Z,54830.59
2023-06-11T08:13:30.003Z,54826.47
2023-06-11T08:15:56.429Z,54836.81
2023-06-11T08:18:22.979Z,54826.47
2023-06-11T08:20:49.523Z,54822.31
2023-06-11T08:23:15.982Z,54843.00
2023-06-11T08:25:42.831Z,54799.56
2023-06-11T08:28:09.160Z,54809.91
2023-06-11T08:30:35.527Z,54849.22
2023-06-11T08:33:02.249Z,54882.28
2023-06-11T08:35:31.184Z,54758.22
2023-06-11T08:37:57.558Z,54820.25
2023-06-11T08:40:23.972Z,54884.38
2023-06-11T08:42:51.585Z,54890.56
2023-06-11T08:45:17.958Z,54766.47
2023-06-11T08:47:50.633Z,54805.78
2023-06-11T08:50:19.879Z,54783.03
2023-06-11T08:52:46.228Z,54795.44
2023-06-11T08:55:13.132Z,54799.56
2023-06-11T08:57:39.530Z,54797.50
2023-06-11T09:00:08.291Z,54845.06
2023-06-11T09:02:34.839Z,54859.53
2023-06-11T09:05:01.566Z,54828.53
2023-06-11T09:07:30.510Z,54902.97
2023-06-11T09:10:23.239Z,54890.56
2023-06-11T09:12:50.126Z,54851.28
2023-06-11T09:15:18.003Z,54925.72
2023-06-11T09:17:45.881Z,54898.84
2023-06-11T09:20:13.211Z,54907.13
2023-06-11T09:22:40.188Z,54917.47
2023-06-11T09:25:11.562Z,54952.63
2023-06-11T09:27:38.483Z,54898.84
2023-06-11T09:30:12.075Z,54929.88
2023-06-11T09:32:42.407Z,54896.78
2023-06-11T09:35:09.496Z,54915.38
2023-06-11T09:37:39.565Z,54880.22
2023-06-11T09:40:07.864Z,54882.28
2023-06-11T09:42:38.147Z,54851.28
2023-06-11T09:45:06.563Z,54888.50
2023-06-11T09:47:33.056Z,54878.16
2023-06-11T09:49:59.599Z,54853.34
2023-06-11T09:52:29.497Z,54834.72
2023-06-11T09:54:56.495Z,54811.97
2023-06-11T09:57:22.838Z,54878.16
2023-06-11T09:59:49.236Z,54900.91
2023-06-11T10:02:15.669Z,54931.94
2023-06-11T10:04:42.078Z,54911.25
2023-06-11T10:07:08.618Z,54931.94
2023-06-11T10:09:34.999Z,54878.16
2023-06-11T10:12:01.338Z,54902.97
2023-06-11T10:14:27.703Z,54983.63
2023-06-11T10:16:55.666Z,55022.94
2023-06-11T10:19:23.110Z,55027.06
2023-06-11T10:21:53.448Z,54934.00
2023-06-11T10:24:29.483Z,54962.97
2023-06-11T10:27:06.539Z,54878.16
2023-06-11T10:29:41.790Z,54938.13
2023-06-11T10:32:21.315Z,54911.25
2023-06-11T10:35:09.120Z,54958.81
2023-06-11T10:37:37.849Z,54913.31
2023-06-11T10:40:06.261Z,55008.47
2023-06-11T10:42:37.808Z,55002.25
2023-06-11T10:45:14.601Z,54934.00
2023-06-11T10:47:44.811Z,55022.94
2023-06-11T10:50:12.625Z,54971.22
2023-06-11T10:52:48.514Z,55053.97
2023-06-11T10:55:14.892Z,55004.31
2023-06-11T10:57:41.801Z,55027.06
2023-06-11T11:00:11.039Z,54940.22
2023-06-11T11:02:37.640Z,54944.34
2023-06-11T11:05:07.700Z,55027.06
2023-06-11T11:07:37.104Z,54981.56
2023-06-11T11:10:09.240Z,55089.13
2023-06-11T11:12:36.274Z,54981.56
2023-06-11T11:15:02.864Z,54950.56
2023-06-11T11:17:29.933Z,54944.34
2023-06-11T11:19:56.335Z,55002.25
2023-06-11T11:22:22.740Z,55047.75
2023-06-11T11:24:49.080Z,55053.97
2023-06-11T11:27:15.408Z,55047.75
2023-06-11T11:29:41.778Z,55072.56
2023-06-11T11:32:10.597Z,55033.28
2023-06-11T11:34:40.345Z,55058.09
2023-06-11T11:37:07.233Z,55058.09
2023-06-11T11:39:33.567Z,55056.03
2023-06-11T11:42:02.849Z,55091.19
2023-06-11T11:44:38.644Z,55072.56
2023-06-11T11:47:05.340Z,55020.88
2023-06-11T11:49:33.352Z,55031.22
2023-06-11T11:52:01.887Z,54991.91
2023-06-11T11:54:28.246Z,54969.16
2023-06-11T11:56:58.200Z,55043.63
2023-06-11T11:59:27.413Z,55072.56
2023-06-11T12:01:58.916Z,55068.44
2023-06-11T12:04:41.434Z,55087.06
2023-06-11T12:07:08.653Z,55095.31
2023-06-11T12:09:35.542Z,55012.59
2023-06-11T12:12:06.137Z,54975.38
2023-06-11T12:14:32.826Z,54998.13
2023-06-11T12:16:59.317Z,55068.44
2023-06-11T12:19:25.830Z,55078.78
2023-06-11T12:21:52.436Z,55002.25
2023-06-11T12:24:19.068Z,54936.06
2023-06-11T12:26:46.932Z,55002.25
2023-06-11T12:29:13.517Z,55101.53
2023-06-11T12:31:40.110Z,55122.22
2023-06-11T12:34:06.937Z,55078.78
2023-06-11T12:36:36.510Z,55155.31
2023-06-11T12:39:05.851Z,55194.59
2023-06-11T12:41:32.495Z,55176.00
2023-06-11T12:43:59.266Z,55087.06
2023-06-11T12:46:27.806Z,55196.66
2023-06-11T12:48:54.561Z,55124.28
2023-06-11T12:51:23.445Z,55151.16
2023-06-11T12:53:52.692Z,55169.78
2023-06-11T12:56:19.312Z,55161.50
2023-06-11T12:58:45.965Z,55080.84
2023-06-11T13:01:12.339Z,55022.94
2023-06-11T13:03:40.183Z,54948.47
2023-06-11T13:06:08.243Z,54913.31
2023-06-11T13:08:35.012Z,54923.66
2023-06-11T13:11:01.492Z,54991.91
2023-06-11T13:13:27.904Z,55080.84
2023-06-11T13:15:54.576Z,55147.03
2023-06-11T13:18:21.106Z,55217.34
2023-06-11T13:20:47.813Z,55076.72
2023-06-11T13:23:20.267Z,55093.25
2023-06-11T13:25:48.521Z,55130.50
2023-06-11T13:28:15.417Z,55043.63
2023-06-11T13:30:41.764Z,55155.31
2023-06-11T13:33:08.200Z,55155.31
2023-06-11T13:35:34.598Z,55087.06
2023-06-11T13:38:02.411Z,55093.25
2023-06-11T13:40:28.849Z,55078.78
2023-06-11T13:42:55.254Z,55060.16
2023-06-11T13:45:21.705Z,55082.91
2023-06-11T13:47:48.530Z,55002.25
2023-06-11T13:50:15.134Z,55062.22
2023-06-11T13:52:41.564Z,55091.19
2023-06-11T13:55:08.069Z,55078.78
2023-06-11T13:57:34.435Z,55109.81
2023-06-11T14:00:00.983Z,55118.06
2023-06-11T14:02:27.551Z,55151.16
2023-06-11T14:04:54.510Z,55134.63
2023-06-11T14:07:20.966Z,55109.81
2023-06-11T14:09:47.805Z,55190.47
2023-06-11T14:12:14.150Z,55215.28
2023-06-11T14:14:40.500Z,55147.03
2023-06-11T14:17:07.359Z,55167.72
2023-06-11T14:19:33.923Z,55204.94
2023-06-11T14:22:00.384Z,55235.97
2023-06-11T14:24:26.880Z,55225.63
2023-06-11T14:26:55.803Z,55211.16
2023-06-11T14:29:23.181Z,55262.84
2023-06-11T14:31:49.646Z,55240.09
2023-06-11T14:34:16.054Z,55215.28
2023-06-11T14:36:42.434Z,55204.94
2023-06-11T14:39:08.788Z,55227.69
2023-06-11T14:41:35.164Z,55213.22
2023-06-11T14:44:01.550Z,55109.81
2023-06-11T14:46:28.059Z,55213.22
2023-06-11T14:48:54.493Z,55157.38
2023-06-11T14:51:20.811Z,55173.91
2023-06-11T14:53:49.672Z,55173.91
2023-06-11T14:56:16.348Z,55099.47
2023-06-11T14:58:42.675Z,55126.34
2023-06-11T15:01:09.369Z,55031.22
2023-06-11T15:03:35.895Z,55039.47
2023-06-11T15:06:02.978Z,55049.81
2023-06-11T15:08:29.409Z,55043.63
2023-06-11T15:10:55.835Z,55138.75
2023-06-11T15:13:22.255Z,55113.94
2023-06-11T15:15:48.699Z,55066.38
2023-06-11T15:18:15.072Z,55041.56
2023-06-11T15:20:41.613Z,55126.34
2023-06-11T15:23:10.999Z,55116.00
2023-06-11T15:25:37.698Z,55072.56
2023-06-11T15:28:04.467Z,55080.84
2023-06-11T15:30:30.903Z,55103.59
2023-06-11T15:32:59.617Z,55058.09
2023-06-11T15:35:26.595Z,55043.63
2023-06-11T15:37:52.997Z,55049.81
2023-06-11T15:40:19.417Z,55109.81
2023-06-11T15:42:45.924Z,55153.25
2023-06-11T15:45:14.008Z,55132.56
2023-06-11T15:47:41.168Z,55060.16
2023-06-11T15:50:11.212Z,55101.53
2023-06-11T15:52:37.938Z,55120.16
2023-06-11T15:55:04.524Z,55016.72
2023-06-11T15:57:31.002Z,55047.75
2023-06-11T16:00:00.030Z,55039.47
2023-06-11T16:02:26.483Z,54962.97
2023-06-11T16:04:52.916Z,54882.28
2023-06-11T16:07:19.344Z,54859.53
2023-06-11T16:09:45.732Z,54840.94
2023-06-11T16:12:12.064Z,54888.50
2023-06-11T16:14:38.410Z,54946.41
2023-06-11T16:17:04.867Z,54956.75
2023-06-11T16:19:31.329Z,54936.06
2023-06-11T16:21:57.692Z,54907.13
2023-06-11T16:24:24.135Z,54923.66
2023-06-11T16:26:50.613Z,54923.66
2023-06-11T16:29:16.949Z,54940.22
2023-06-11T16:31:44.106Z,54948.47
2023-06-11T16:34:10.811Z,54965.03
2023-06-11T16:36:37.528Z,55031.22
2023-06-11T16:39:21.059Z,54896.78
2023-06-11T16:41:51.379Z,54911.25
2023-06-11T16:44:17.716Z,54931.94
2023-06-11T16:46:44.116Z,54973.31
2023-06-11T16:49:10.649Z,54878.16
2023-06-11T16:51:37.011Z,54956.75
2023-06-11T16:54:03.340Z,54867.81
2023-06-11T16:56:29.941Z,54892.63
2023-06-11T16:58:57.342Z,54880.22
2023-06-11T17:01:24.755Z,54900.91
2023-06-11T17:03:51.157Z,54900.91
2023-06-11T17:06:17.565Z,54884.38
2023-06-11T17:08:44.084Z,54847.13
2023-06-11T17:11:10.459Z,54847.13
2023-06-11T17:13:36.831Z,54865.75
2023-06-11T17:16:03.243Z,54863.69
2023-06-11T17:18:29.730Z,54824.38
2023-06-11T17:20:57.185Z,54851.28
2023-06-11T17:23:23.587Z,54840.94
2023-06-11T17:25:49.989Z,54855.41
2023-06-11T17:28:16.366Z,54861.63
2023-06-11T17:30:42.709Z,54834.72
2023-06-11T17:33:09.139Z,54859.53
2023-06-11T17:35:35.542Z,54828.53
2023-06-11T17:38:02.215Z,54828.53
2023-06-11T17:40:28.687Z,54816.13
2023-06-11T17:42:58.581Z,54809.91
2023-06-11T17:45:29.507Z,54820.25
2023-06-11T17:47:56.241Z,54803.72
2023-06-11T17:50:23.177Z,54801.63
2023-06-11T17:52:49.974Z,54714.78
2023-06-11T17:55:16.415Z,54745.81
2023-06-11T17:57:46.846Z,54739.59
2023-06-11T18:00:16.184Z,54747.88
2023-06-11T18:02:44.503Z,54754.06
2023-06-11T18:05:11.615Z,54758.22
2023-06-11T18:07:42.126Z,54758.22
2023-06-11T18:10:08.948Z,54741.66
2023-06-11T18:12:35.266Z,54725.13
2023-06-11T18:15:04.179Z,54725.13
2023-06-11T18:17:37.513Z,54679.63
2023-06-11T18:20:04.108Z,54696.16
2023-06-11T18:22:30.602Z,54640.34
2023-06-11T18:24:56.967Z,54689.97
2023-06-11T18:27:23.346Z,54679.63
2023-06-11T18:29:49.880Z,54636.19
2023-06-11T18:32:16.329Z,54642.41
2023-06-11T18:34:44.935Z,54642.41
2023-06-11T18:37:13.830Z,54650.66
2023-06-11T18:39:42.838Z,54650.66
2023-06-11T18:42:12.795Z,54636.19
2023-06-11T18:44:39.152Z,54619.66
2023-06-11T18:47:05.679Z,54630.00
2023-06-11T18:49:32.082Z,54607.25
2023-06-11T18:52:00.420Z,54586.56
2023-06-11T18:54:29.235Z,54580.34
2023-06-11T18:56:55.721Z,54563.81
2023-06-11T18:59:22.098Z,54559.69
2023-06-11T19:01:48.492Z,54592.78
2023-06-11T19:04:17.497Z,54588.63
2023-06-11T19:06:43.962Z,54572.09
2023-06-11T19:09:11.852Z,54545.19
2023-06-11T19:11:38.661Z,54555.53
2023-06-11T19:14:05.056Z,54530.72
2023-06-11T19:16:31.420Z,54518.31
2023-06-11T19:18:57.825Z,54555.53
2023-06-11T19:21:25.937Z,54512.13
2023-06-11T19:23:52.560Z,54489.38
2023-06-11T19:26:21.080Z,54518.31
2023-06-11T19:28:48.383Z,54491.44
2023-06-11T19:31:14.789Z,54507.97
2023-06-11T19:33:41.165Z,54510.03
2023-06-11T19:36:07.580Z,54468.69
2023-06-11T19:38:33.950Z,54485.22
2023-06-11T19:41:02.830Z,54503.84
2023-06-11T19:43:29.373Z,54495.56
2023-06-11T19:45:55.748Z,54476.97
2023-06-11T19:48:23.414Z,54450.06
2023-06-11T19:50:53.454Z,54454.22
2023-06-11T19:53:20.142Z,54452.16
2023-06-11T19:55:46.809Z,54437.66
2023-06-11T19:58:13.625Z,54425.25
2023-06-11T20:00:39.984Z,54417.00
2023-06-11T20:03:06.688Z,54441.81
2023-06-11T20:05:33.645Z,54410.78
2023-06-11T20:08:01.934Z,54429.41
2023-06-11T20:10:36.918Z,54423.19
2023-06-11T20:13:04.086Z,54394.25
2023-06-11T20:15:30.485Z,54414.91
2023-06-11T20:17:56.877Z,54419.06
2023-06-11T20:20:23.481Z,54414.91
2023-06-11T20:22:49.881Z,54406.66
2023-06-11T20:25:16.401Z,54381.84
2023-06-11T20:27:42.829Z,54377.69
2023-06-11T20:30:09.406Z,54394.25
2023-06-11T20:32:36.158Z,54406.66
2023-06-11T20:35:02.952Z,54365.28
2023-06-11T20:37:29.360Z,54361.16
2023-06-11T20:39:55.791Z,54342.53
2023-06-11T20:42:22.138Z,54394.25
2023-06-11T20:44:48.562Z,54332.22
2023-06-11T20:47:15.112Z,54369.44
2023-06-11T20:49:41.664Z,54336.34
2023-06-11T20:52:08.203Z,54319.81
2023-06-11T20:54:35.829Z,54323.94
2023-06-11T20:57:02.161Z,54352.88
2023-06-11T20:59:28.798Z,54319.81
2023-06-11T21:01:57.592Z,54334.28
2023-06-11T21:04:24.099Z,54328.06
2023-06-11T21:06:50.436Z,54326.00
2023-06-11T21:09:16.828Z,54342.53
2023-06-11T21:11:43.167Z,54381.84
2023-06-11T21:14:14.068Z,54338.41
2023-06-11T21:16:41.546Z,54338.41
2023-06-11T21:19:08.059Z,54342.53
2023-06-11T21:21:34.576Z,54340.47
2023-06-11T21:24:03.190Z,54330.13
2023-06-11T21:26:29.678Z,54338.41
2023-06-11T21:28:56.028Z,54344.63
2023-06-11T21:31:22.446Z,54352.88
2023-06-11T21:33:48.810Z,54313.59
2023-06-11T21:36:15.268Z,54317.72
2023-06-11T21:38:41.640Z,54270.16
2023-06-11T21:41:07.963Z,54255.69
2023-06-11T21:43:34.284Z,54286.72
2023-06-11T21:46:00.736Z,54247.44
2023-06-11T21:48:27.074Z,54216.41
2023-06-11T21:50:53.446Z,54224.69
2023-06-11T21:53:20.369Z,54266.03
2023-06-11T21:55:49.474Z,54230.88
2023-06-11T21:58:18.212Z,54195.72
2023-06-11T22:00:44.637Z,54232.94
2023-06-11T22:03:17.995Z,54228.81
2023-06-11T22:05:45.004Z,54191.59
2023-06-11T22:08:11.480Z,54220.53
2023-06-11T22:10:37.815Z,54220.53
2023-06-11T22:13:04.210Z,54197.78
2023-06-11T22:15:30.644Z,54212.28
2023-06-11T22:17:57.065Z,54212.28
2023-06-11T22:20:26.359Z,54208.13
2023-06-11T22:22:52.922Z,54191.59
2023-06-11T22:25:19.371Z,54206.06
2023-06-11T22:27:46.031Z,54177.13
2023-06-11T22:30:13.216Z,54183.31
2023-06-11T22:32:41.915Z,54189.53
2023-06-11T22:35:10.863Z,54197.78
2023-06-11T22:37:37.536Z,54189.53
2023-06-11T22:40:05.931Z,54191.59
2023-06-11T22:42:32.673Z,54197.78
2023-06-11T22:44:59.011Z,54193.66
2023-06-11T22:47:28.851Z,54199.88
2023-06-11T22:49:56.492Z,54187.47
2023-06-11T22:52:23.370Z,54208.13
2023-06-11T22:54:49.885Z,54220.53
2023-06-11T22:57:16.308Z,54183.31
2023-06-11T22:59:42.663Z,54177.13
2023-06-11T23:02:09.110Z,54197.78
2023-06-11T23:04:35.560Z,54197.78
2023-06-11T23:07:03.366Z,54181.25
2023-06-11T23:09:30.570Z,54191.59
2023-06-11T23:11:57.034Z,54187.47
2023-06-11T23:14:23.394Z,54162.66
2023-06-11T23:16:49.886Z,54177.13
2023-06-11T23:19:18.516Z,54189.53
2023-06-11T23:21:45.084Z,54170.91
2023-06-11T23:24:11.526Z,54158.50
2023-06-11T23:26:38.143Z,54179.19
2023-06-11T23:29:04.492Z,54158.50
2023-06-11T23:31:35.533Z,54175.06
2023-06-11T23:34:01.975Z,54166.78
2023-06-11T23:36:28.580Z,54164.72
2023-06-11T23:38:54.949Z,54183.31
2023-06-11T23:41:21.279Z,54146.09
2023-06-11T23:43:47.927Z,54150.25
2023-06-11T23:46:14.367Z,54129.56
2023-06-11T23:48:40.823Z,54158.50
2023-06-11T23:51:09.381Z,54150.25
2023-06-11T23:53:36.353Z,54146.09
2023-06-11T23:56:02.914Z,54146.09
2023-06-11T23:58:29.460Z,54139.91
